sensor_id;sensor_type;location;lat;lon;timestamp;pressure;altitude;pressure_sealevel;temperature;humidity
77366;BME280;66430;50.182;11.704;2023-07-31T00:00:49;94603.16;;;17.47;35.29
77366;BME280;66430;50.182;11.704;2023-07-31T00:03:14;94603.09;;;17.74;35.01
77366;BME280;66430;50.182;11.704;2023-07-31T00:05:39;94603.12;;;17.90;34.76
77366;BME280;66430;50.182;11.704;2023-07-31T00:08:05;94597.64;;;17.47;35.12
77366;BME280;66430;50.182;11.704;2023-07-31T00:10:30;94600.64;;;17.55;35.31
77366;BME280;66430;50.182;11.704;2023-07-31T00:12:56;94594.91;;;17.16;35.45
77366;BME280;66430;50.182;11.704;2023-07-31T00:15:21;94594.83;;;17.22;36.22
77366;BME280;66430;50.182;11.704;2023-07-31T00:17:46;94591.94;;;17.59;35.30
77366;BME280;66430;50.182;11.704;2023-07-31T00:20:11;94588.63;;;17.10;35.63
77366;BME280;66430;50.182;11.704;2023-07-31T00:22:36;94588.32;;;17.09;35.65
77366;BME280;66430;50.182;11.704;2023-07-31T00:25:02;94584.28;;;17.68;35.13
77366;BME280;66430;50.182;11.704;2023-07-31T00:27:27;94578.64;;;17.59;34.90
77366;BME280;66430;50.182;11.704;2023-07-31T00:29:52;94576.76;;;17.61;35.07
77366;BME280;66430;50.182;11.704;2023-07-31T00:32:18;94577.73;;;17.81;34.82
77366;BME280;66430;50.182;11.704;2023-07-31T00:34:43;94577.84;;;17.85;34.76
77366;BME280;66430;50.182;11.704;2023-07-31T00:37:09;94576.72;;;17.94;34.71
77366;BME280;66430;50.182;11.704;2023-07-31T00:39:34;94577.59;;;17.92;34.64
77366;BME280;66430;50.182;11.704;2023-07-31T00:41:59;94577.80;;;17.56;34.91
77366;BME280;66430;50.182;11.704;2023-07-31T00:44:25;94577.47;;;17.69;34.81
77366;BME280;66430;50.182;11.704;2023-07-31T00:46:50;94579.00;;;17.76;34.73
77366;BME280;66430;50.182;11.704;2023-07-31T00:49:16;94573.89;;;17.43;35.42
77366;BME280;66430;50.182;11.704;2023-07-31T00:51:41;94572.90;;;17.65;35.46
77366;BME280;66430;50.182;11.704;2023-07-31T00:54:08;94567.97;;;17.64;35.14
77366;BME280;66430;50.182;11.704;2023-07-31T00:56:32;94569.16;;;17.82;34.87
77366;BME280;66430;50.182;11.704;2023-07-31T00:58:58;94569.14;;;17.53;35.46
77366;BME280;66430;50.182;11.704;2023-07-31T01:01:23;94572.65;;;17.60;35.36
77366;BME280;66430;50.182;11.704;2023-07-31T01:03:49;94572.91;;;17.74;35.13
77366;BME280;66430;50.182;11.704;2023-07-31T01:06:17;94570.79;;;17.43;35.99
77366;BME280;66430;50.182;11.704;2023-07-31T01:08:46;94569.10;;;17.82;35.78
77366;BME280;66430;50.182;11.704;2023-07-31T01:11:09;94568.44;;;17.69;35.64
77366;BME280;66430;50.182;11.704;2023-07-31T01:13:30;94568.62;;;17.82;35.47
77366;BME280;66430;50.182;11.704;2023-07-31T01:15:55;94568.32;;;17.80;35.53
77366;BME280;66430;50.182;11.704;2023-07-31T01:18:21;94566.11;;;17.62;36.06
77366;BME280;66430;50.182;11.704;2023-07-31T01:20:51;94571.99;;;17.56;36.21
77366;BME280;66430;50.182;11.704;2023-07-31T01:23:26;94575.47;;;17.12;37.01
77366;BME280;66430;50.182;11.704;2023-07-31T01:28:05;94578.80;;;17.39;36.74
77366;BME280;66430;50.182;11.704;2023-07-31T01:30:32;94576.88;;;17.71;36.89
77366;BME280;66430;50.182;11.704;2023-07-31T01:32:54;94573.42;;;17.65;36.54
77366;BME280;66430;50.182;11.704;2023-07-31T01:35:19;94572.34;;;17.60;36.93
77366;BME280;66430;50.182;11.704;2023-07-31T01:37:45;94569.64;;;17.80;37.13
77366;BME280;66430;50.182;11.704;2023-07-31T01:40:10;94569.14;;;17.72;36.91
77366;BME280;66430;50.182;11.704;2023-07-31T01:42:35;94565.45;;;18.09;36.64
77366;BME280;66430;50.182;11.704;2023-07-31T01:45:00;94562.14;;;17.82;36.98
77366;BME280;66430;50.182;11.704;2023-07-31T01:47:26;94563.85;;;17.55;37.55
77366;BME280;66430;50.182;11.704;2023-07-31T01:49:51;94564.11;;;17.25;37.72
77366;BME280;66430;50.182;11.704;2023-07-31T01:52:16;94559.74;;;17.29;37.83
77366;BME280;66430;50.182;11.704;2023-07-31T01:54:42;94560.98;;;17.65;37.43
77366;BME280;66430;50.182;11.704;2023-07-31T01:57:09;94555.86;;;17.80;37.71
77366;BME280;66430;50.182;11.704;2023-07-31T01:59:33;94548.38;;;17.47;38.02
77366;BME280;66430;50.182;11.704;2023-07-31T02:01:58;94538.32;;;18.13;37.29
77366;BME280;66430;50.182;11.704;2023-07-31T02:04:24;94537.25;;;18.07;37.41
77366;BME280;66430;50.182;11.704;2023-07-31T02:06:49;94531.30;;;18.05;37.03
77366;BME280;66430;50.182;11.704;2023-07-31T02:09:15;94534.74;;;17.92;37.82
77366;BME280;66430;50.182;11.704;2023-07-31T02:11:40;94535.09;;;17.48;37.68
77366;BME280;66430;50.182;11.704;2023-07-31T02:14:05;94537.36;;;17.51;38.12
77366;BME280;66430;50.182;11.704;2023-07-31T02:16:30;94537.57;;;17.88;37.78
77366;BME280;66430;50.182;11.704;2023-07-31T02:18:56;94536.00;;;18.04;37.28
77366;BME280;66430;50.182;11.704;2023-07-31T02:21:21;94531.79;;;17.88;37.77
77366;BME280;66430;50.182;11.704;2023-07-31T02:23:47;94531.29;;;17.90;37.59
77366;BME280;66430;50.182;11.704;2023-07-31T02:26:13;94523.38;;;17.70;38.04
77366;BME280;66430;50.182;11.704;2023-07-31T02:28:38;94525.79;;;17.54;38.54
77366;BME280;66430;50.182;11.704;2023-07-31T02:31:03;94521.89;;;17.81;38.08
77366;BME280;66430;50.182;11.704;2023-07-31T02:33:28;94519.94;;;17.43;38.98
77366;BME280;66430;50.182;11.704;2023-07-31T02:35:54;94515.80;;;17.84;38.19
77366;BME280;66430;50.182;11.704;2023-07-31T02:38:19;94519.28;;;17.42;39.00
77366;BME280;66430;50.182;11.704;2023-07-31T02:40:44;94514.86;;;17.76;38.27
77366;BME280;66430;50.182;11.704;2023-07-31T02:43:10;94510.49;;;17.72;38.39
77366;BME280;66430;50.182;11.704;2023-07-31T02:45:35;94503.81;;;17.72;38.47
77366;BME280;66430;50.182;11.704;2023-07-31T02:48:01;94503.63;;;17.72;38.43
77366;BME280;66430;50.182;11.704;2023-07-31T02:50:26;94499.19;;;17.90;38.66
77366;BME280;66430;50.182;11.704;2023-07-31T02:52:51;94497.70;;;17.09;39.60
77366;BME280;66430;50.182;11.704;2023-07-31T02:55:19;94504.18;;;17.57;38.96
77366;BME280;66430;50.182;11.704;2023-07-31T02:57:42;94503.79;;;17.98;38.50
77366;BME280;66430;50.182;11.704;2023-07-31T03:00:08;94500.10;;;17.69;38.70
77366;BME280;66430;50.182;11.704;2023-07-31T03:02:33;94498.08;;;17.61;38.40
77366;BME280;66430;50.182;11.704;2023-07-31T03:04:58;94498.58;;;18.04;38.62
77366;BME280;66430;50.182;11.704;2023-07-31T03:07:24;94500.59;;;17.47;39.24
77366;BME280;66430;50.182;11.704;2023-07-31T03:09:50;94498.41;;;17.68;38.92
77366;BME280;66430;50.182;11.704;2023-07-31T03:12:14;94497.08;;;17.48;39.33
77366;BME280;66430;50.182;11.704;2023-07-31T03:14:40;94499.39;;;17.73;38.94
77366;BME280;66430;50.182;11.704;2023-07-31T03:17:06;94498.95;;;17.39;39.65
77366;BME280;66430;50.182;11.704;2023-07-31T03:19:31;94494.65;;;17.82;39.01
77366;BME280;66430;50.182;11.704;2023-07-31T03:21:56;94494.27;;;17.95;39.22
77366;BME280;66430;50.182;11.704;2023-07-31T03:24:21;94494.96;;;17.62;39.46
77366;BME280;66430;50.182;11.704;2023-07-31T03:26:48;94493.02;;;17.49;39.71
77366;BME280;66430;50.182;11.704;2023-07-31T03:29:13;94498.01;;;18.13;38.94
77366;BME280;66430;50.182;11.704;2023-07-31T03:31:38;94496.93;;;18.07;38.98
77366;BME280;66430;50.182;11.704;2023-07-31T03:34:03;94492.26;;;17.55;39.76
77366;BME280;66430;50.182;11.704;2023-07-31T03:36:28;94495.53;;;17.81;39.75
77366;BME280;66430;50.182;11.704;2023-07-31T03:38:54;94491.73;;;17.48;40.39
77366;BME280;66430;50.182;11.704;2023-07-31T03:41:19;94487.28;;;17.70;39.74
77366;BME280;66430;50.182;11.704;2023-07-31T03:43:46;94490.13;;;17.85;39.56
77366;BME280;66430;50.182;11.704;2023-07-31T03:46:10;94491.06;;;17.70;39.32
77366;BME280;66430;50.182;11.704;2023-07-31T03:48:36;94490.48;;;17.42;40.38
77366;BME280;66430;50.182;11.704;2023-07-31T03:51:01;94489.20;;;18.08;39.41
77366;BME280;66430;50.182;11.704;2023-07-31T03:53:26;94494.05;;;17.96;39.61
77366;BME280;66430;50.182;11.704;2023-07-31T03:55:51;94493.74;;;17.97;39.13
77366;BME280;66430;50.182;11.704;2023-07-31T03:58:17;94491.79;;;18.09;39.05
77366;BME280;66430;50.182;11.704;2023-07-31T04:00:42;94485.25;;;17.96;39.33
77366;BME280;66430;50.182;11.704;2023-07-31T04:03:08;94482.66;;;18.12;39.06
77366;BME280;66430;50.182;11.704;2023-07-31T04:05:37;94485.18;;;17.81;39.41
77366;BME280;66430;50.182;11.704;2023-07-31T04:07:59;94483.62;;;17.67;39.85
77366;BME280;66430;50.182;11.704;2023-07-31T04:10:24;94484.27;;;18.03;39.04
77366;BME280;66430;50.182;11.704;2023-07-31T04:12:49;94479.87;;;18.03;39.24
77366;BME280;66430;50.182;11.704;2023-07-31T04:15:15;94476.74;;;17.92;39.47
77366;BME280;66430;50.182;11.704;2023-07-31T04:17:40;94475.12;;;17.92;39.47
77366;BME280;66430;50.182;11.704;2023-07-31T04:20:07;94479.98;;;18.04;39.68
77366;BME280;66430;50.182;11.704;2023-07-31T04:22:31;94472.48;;;18.08;39.04
77366;BME280;66430;50.182;11.704;2023-07-31T04:24:56;94467.88;;;17.49;39.96
77366;BME280;66430;50.182;11.704;2023-07-31T04:27:22;94469.71;;;17.77;39.47
77366;BME280;66430;50.182;11.704;2023-07-31T04:29:47;94467.44;;;17.81;39.37
77366;BME280;66430;50.182;11.704;2023-07-31T04:32:13;94465.27;;;17.55;39.97
77366;BME280;66430;50.182;11.704;2023-07-31T04:34:38;94467.34;;;17.74;39.22
77366;BME280;66430;50.182;11.704;2023-07-31T04:37:03;94470.06;;;18.02;39.62
77366;BME280;66430;50.182;11.704;2023-07-31T04:39:29;94471.27;;;18.10;38.92
77366;BME280;66430;50.182;11.704;2023-07-31T04:41:54;94471.26;;;18.05;39.05
77366;BME280;66430;50.182;11.704;2023-07-31T04:44:20;94462.99;;;18.10;38.91
77366;BME280;66430;50.182;11.704;2023-07-31T04:46:45;94466.45;;;17.66;40.11
77366;BME280;66430;50.182;11.704;2023-07-31T04:49:11;94464.19;;;18.24;39.09
77366;BME280;66430;50.182;11.704;2023-07-31T04:51:36;94463.84;;;18.10;39.52
77366;BME280;66430;50.182;11.704;2023-07-31T04:54:01;94468.93;;;18.04;39.64
77366;BME280;66430;50.182;11.704;2023-07-31T04:56:26;94469.04;;;17.75;39.67
77366;BME280;66430;50.182;11.704;2023-07-31T04:58:52;94460.13;;;17.82;39.49
77366;BME280;66430;50.182;11.704;2023-07-31T05:01:17;94456.30;;;17.94;39.66
77366;BME280;66430;50.182;11.704;2023-07-31T05:03:43;94453.74;;;18.21;39.36
77366;BME280;66430;50.182;11.704;2023-07-31T05:06:08;94454.50;;;18.39;39.04
77366;BME280;66430;50.182;11.704;2023-07-31T05:08:33;94455.20;;;18.50;38.91
77366;BME280;66430;50.182;11.704;2023-07-31T05:10:59;94455.83;;;17.87;39.31
77366;BME280;66430;50.182;11.704;2023-07-31T05:13:24;94451.32;;;17.92;39.14
77366;BME280;66430;50.182;11.704;2023-07-31T05:15:49;94457.35;;;18.37;39.18
77366;BME280;66430;50.182;11.704;2023-07-31T05:18:15;94460.80;;;18.02;39.01
77366;BME280;66430;50.182;11.704;2023-07-31T05:20:40;94458.16;;;18.18;39.00
77366;BME280;66430;50.182;11.704;2023-07-31T05:23:06;94456.27;;;18.54;38.71
77366;BME280;66430;50.182;11.704;2023-07-31T05:25:31;94457.46;;;17.87;39.38
77366;BME280;66430;50.182;11.704;2023-07-31T05:27:56;94454.34;;;18.16;39.35
77366;BME280;66430;50.182;11.704;2023-07-31T05:30:22;94451.50;;;17.91;39.18
77366;BME280;66430;50.182;11.704;2023-07-31T05:32:47;94456.77;;;18.34;39.00
77366;BME280;66430;50.182;11.704;2023-07-31T05:35:13;94458.62;;;18.53;38.71
77366;BME280;66430;50.182;11.704;2023-07-31T05:37:38;94457.33;;;17.95;39.16
77366;BME280;66430;50.182;11.704;2023-07-31T05:40:05;94456.72;;;18.45;38.82
77366;BME280;66430;50.182;11.704;2023-07-31T05:42:29;94456.58;;;17.80;39.28
77366;BME280;66430;50.182;11.704;2023-07-31T05:44:54;94448.86;;;18.43;38.92
77366;BME280;66430;50.182;11.704;2023-07-31T05:47:19;94444.59;;;17.75;38.95
77366;BME280;66430;50.182;11.704;2023-07-31T05:49:45;94446.84;;;17.85;38.83
77366;BME280;66430;50.182;11.704;2023-07-31T05:52:10;94446.06;;;18.50;38.62
77366;BME280;66430;50.182;11.704;2023-07-31T05:54:36;94455.53;;;18.32;38.73
77366;BME280;66430;50.182;11.704;2023-07-31T05:57:01;94452.45;;;18.33;38.66
77366;BME280;66430;50.182;11.704;2023-07-31T05:59:26;94450.81;;;18.19;38.60
77366;BME280;66430;50.182;11.704;2023-07-31T06:01:52;94445.54;;;18.35;38.64
77366;BME280;66430;50.182;11.704;2023-07-31T06:04:17;94445.97;;;18.35;38.99
77366;BME280;66430;50.182;11.704;2023-07-31T06:06:43;94444.54;;;17.74;39.28
77366;BME280;66430;50.182;11.704;2023-07-31T06:09:08;94443.47;;;18.55;38.51
77366;BME280;66430;50.182;11.704;2023-07-31T06:11:34;94440.99;;;18.07;39.18
77366;BME280;66430;50.182;11.704;2023-07-31T06:13:59;94443.21;;;18.27;39.04
77366;BME280;66430;50.182;11.704;2023-07-31T06:16:25;94440.39;;;18.65;38.55
77366;BME280;66430;50.182;11.704;2023-07-31T06:18:50;94438.74;;;18.52;38.96
77366;BME280;66430;50.182;11.704;2023-07-31T06:21:15;94436.74;;;17.97;38.88
77366;BME280;66430;50.182;11.704;2023-07-31T06:23:40;94437.43;;;18.59;38.21
77366;BME280;66430;50.182;11.704;2023-07-31T06:26:07;94438.84;;;18.48;38.28
77366;BME280;66430;50.182;11.704;2023-07-31T06:28:32;94436.83;;;18.79;38.29
77366;BME280;66430;50.182;11.704;2023-07-31T06:30:56;94436.92;;;18.57;38.69
77366;BME280;66430;50.182;11.704;2023-07-31T06:33:21;94434.58;;;18.42;38.43
77366;BME280;66430;50.182;11.704;2023-07-31T06:35:47;94443.38;;;18.29;38.73
77366;BME280;66430;50.182;11.704;2023-07-31T06:38:13;94442.60;;;18.37;38.77
77366;BME280;66430;50.182;11.704;2023-07-31T06:40:38;94442.50;;;18.52;38.51
77366;BME280;66430;50.182;11.704;2023-07-31T06:43:03;94449.10;;;18.85;38.71
77366;BME280;66430;50.182;11.704;2023-07-31T06:45:28;94448.86;;;18.63;38.50
77366;BME280;66430;50.182;11.704;2023-07-31T06:47:54;94443.29;;;18.67;38.54
77366;BME280;66430;50.182;11.704;2023-07-31T06:50:19;94445.79;;;18.75;39.09
77366;BME280;66430;50.182;11.704;2023-07-31T06:52:44;94445.58;;;19.01;38.64
77366;BME280;66430;50.182;11.704;2023-07-31T06:55:18;94447.83;;;19.08;38.56
77366;BME280;66430;50.182;11.704;2023-07-31T06:57:35;94454.37;;;19.04;38.60
77366;BME280;66430;50.182;11.704;2023-07-31T07:00:00;94451.50;;;18.95;38.29
77366;BME280;66430;50.182;11.704;2023-07-31T07:02:26;94445.43;;;19.42;38.14
77366;BME280;66430;50.182;11.704;2023-07-31T07:04:51;94453.85;;;19.19;38.45
77366;BME280;66430;50.182;11.704;2023-07-31T07:07:17;94454.07;;;19.53;38.07
77366;BME280;66430;50.182;11.704;2023-07-31T07:09:42;94450.63;;;19.31;38.17
77366;BME280;66430;50.182;11.704;2023-07-31T07:12:08;94454.88;;;19.19;37.75
77366;BME280;66430;50.182;11.704;2023-07-31T07:14:33;94454.45;;;18.69;38.74
77366;BME280;66430;50.182;11.704;2023-07-31T07:16:58;94454.46;;;19.46;37.93
77366;BME280;66430;50.182;11.704;2023-07-31T07:19:23;94455.92;;;19.10;38.44
77366;BME280;66430;50.182;11.704;2023-07-31T07:21:48;94455.00;;;19.42;38.07
77366;BME280;66430;50.182;11.704;2023-07-31T07:24:14;94453.31;;;19.04;38.97
77366;BME280;66430;50.182;11.704;2023-07-31T07:26:39;94456.09;;;19.05;38.71
77366;BME280;66430;50.182;11.704;2023-07-31T07:29:05;94456.78;;;19.28;38.37
77366;BME280;66430;50.182;11.704;2023-07-31T07:31:30;94458.60;;;19.67;37.93
77366;BME280;66430;50.182;11.704;2023-07-31T07:33:55;94452.87;;;19.37;38.63
77366;BME280;66430;50.182;11.704;2023-07-31T07:36:21;94459.91;;;19.50;37.78
77366;BME280;66430;50.182;11.704;2023-07-31T07:38:46;94463.44;;;19.63;38.27
77366;BME280;66430;50.182;11.704;2023-07-31T07:41:12;94464.17;;;19.73;37.80
77366;BME280;66430;50.182;11.704;2023-07-31T07:43:37;94463.38;;;19.93;37.77
77366;BME280;66430;50.182;11.704;2023-07-31T07:46:02;94465.42;;;19.98;37.54
77366;BME280;66430;50.182;11.704;2023-07-31T07:48:28;94469.00;;;19.75;37.44
77366;BME280;66430;50.182;11.704;2023-07-31T07:50:53;94467.53;;;19.61;37.73
77366;BME280;66430;50.182;11.704;2023-07-31T07:53:18;94462.93;;;19.57;37.92
77366;BME280;66430;50.182;11.704;2023-07-31T07:55:44;94465.35;;;19.62;38.23
77366;BME280;66430;50.182;11.704;2023-07-31T07:58:09;94462.35;;;20.09;37.26
77366;BME280;66430;50.182;11.704;2023-07-31T08:00:34;94466.94;;;20.35;37.57
77366;BME280;66430;50.182;11.704;2023-07-31T08:03:00;94467.49;;;20.16;37.37
77366;BME280;66430;50.182;11.704;2023-07-31T08:05:26;94469.70;;;20.53;37.37
77366;BME280;66430;50.182;11.704;2023-07-31T08:07:51;94467.01;;;20.20;37.54
77366;BME280;66430;50.182;11.704;2023-07-31T08:10:22;94467.39;;;20.42;36.86
77366;BME280;66430;50.182;11.704;2023-07-31T08:12:42;94468.88;;;20.29;37.29
77366;BME280;66430;50.182;11.704;2023-07-31T08:15:08;94469.51;;;20.38;36.83
77366;BME280;66430;50.182;11.704;2023-07-31T08:17:32;94466.46;;;20.64;36.86
77366;BME280;66430;50.182;11.704;2023-07-31T08:19:57;94465.90;;;20.43;37.13
77366;BME280;66430;50.182;11.704;2023-07-31T08:22:23;94463.88;;;21.03;36.58
77366;BME280;66430;50.182;11.704;2023-07-31T08:24:48;94463.39;;;20.93;36.57
77366;BME280;66430;50.182;11.704;2023-07-31T08:27:13;94460.35;;;20.83;36.11
77366;BME280;66430;50.182;11.704;2023-07-31T08:29:39;94456.95;;;21.04;36.35
77366;BME280;66430;50.182;11.704;2023-07-31T08:32:08;94451.93;;;21.19;36.23
77366;BME280;66430;50.182;11.704;2023-07-31T08:34:29;94450.73;;;20.98;35.95
77366;BME280;66430;50.182;11.704;2023-07-31T08:36:55;94446.74;;;21.00;36.25
77366;BME280;66430;50.182;11.704;2023-07-31T08:39:20;94446.43;;;21.14;35.93
77366;BME280;66430;50.182;11.704;2023-07-31T08:41:45;94444.63;;;21.19;35.83
77366;BME280;66430;50.182;11.704;2023-07-31T08:44:12;94440.82;;;21.00;35.68
77366;BME280;66430;50.182;11.704;2023-07-31T08:46:36;94436.01;;;21.29;35.69
77366;BME280;66430;50.182;11.704;2023-07-31T08:49:04;94433.34;;;21.70;35.33
77366;BME280;66430;50.182;11.704;2023-07-31T08:51:34;94428.12;;;21.52;35.63
77366;BME280;66430;50.182;11.704;2023-07-31T08:53:53;94427.36;;;21.17;35.63
77366;BME280;66430;50.182;11.704;2023-07-31T08:56:18;94426.88;;;21.74;35.22
77366;BME280;66430;50.182;11.704;2023-07-31T08:58:44;94428.18;;;21.38;35.64
77366;BME280;66430;50.182;11.704;2023-07-31T09:01:08;94423.14;;;21.90;35.51
77366;BME280;66430;50.182;11.704;2023-07-31T09:03:34;94423.61;;;22.04;35.50
77366;BME280;66430;50.182;11.704;2023-07-31T09:05:59;94420.41;;;21.98;34.71
77366;BME280;66430;50.182;11.704;2023-07-31T09:08:26;94420.02;;;22.14;34.93
77366;BME280;66430;50.182;11.704;2023-07-31T09:10:49;94416.85;;;22.26;35.43
77366;BME280;66430;50.182;11.704;2023-07-31T09:13:15;94412.50;;;22.36;34.34
77366;BME280;66430;50.182;11.704;2023-07-31T09:15:42;94408.81;;;22.37;34.75
77366;BME280;66430;50.182;11.704;2023-07-31T09:18:08;94401.98;;;22.52;34.74
77366;BME280;66430;50.182;11.704;2023-07-31T09:20:32;94405.81;;;22.01;35.17
77366;BME280;66430;50.182;11.704;2023-07-31T09:22:56;94399.60;;;22.50;35.38
77366;BME280;66430;50.182;11.704;2023-07-31T09:25:23;94401.02;;;22.61;35.64
77366;BME280;66430;50.182;11.704;2023-07-31T09:27:50;94405.13;;;23.10;34.12
77366;BME280;66430;50.182;11.704;2023-07-31T09:30:13;94404.68;;;22.64;34.55
77366;BME280;66430;50.182;11.704;2023-07-31T09:32:38;94404.26;;;22.65;34.55
77366;BME280;66430;50.182;11.704;2023-07-31T09:35:13;94403.18;;;22.95;34.31
77366;BME280;66430;50.182;11.704;2023-07-31T09:37:29;94404.88;;;22.94;33.56
77366;BME280;66430;50.182;11.704;2023-07-31T09:39:53;94396.68;;;23.35;33.37
77366;BME280;66430;50.182;11.704;2023-07-31T09:42:24;94392.99;;;23.30;32.76
77366;BME280;66430;50.182;11.704;2023-07-31T09:44:44;94397.99;;;23.09;32.83
77366;BME280;66430;50.182;11.704;2023-07-31T09:47:22;94395.80;;;22.93;33.29
77366;BME280;66430;50.182;11.704;2023-07-31T09:49:35;94392.39;;;23.17;33.28
77366;BME280;66430;50.182;11.704;2023-07-31T09:52:00;94398.21;;;22.84;32.42
77366;BME280;66430;50.182;11.704;2023-07-31T09:54:25;94398.11;;;23.03;32.79
77366;BME280;66430;50.182;11.704;2023-07-31T09:56:51;94391.35;;;23.12;32.80
77366;BME280;66430;50.182;11.704;2023-07-31T09:59:18;94390.03;;;23.16;32.50
77366;BME280;66430;50.182;11.704;2023-07-31T10:01:43;94398.85;;;22.97;32.85
77366;BME280;66430;50.182;11.704;2023-07-31T10:04:08;94395.19;;;23.40;32.66
77366;BME280;66430;50.182;11.704;2023-07-31T10:06:33;94394.97;;;22.72;32.61
77366;BME280;66430;50.182;11.704;2023-07-31T10:08:58;94397.00;;;23.43;32.82
77366;BME280;66430;50.182;11.704;2023-07-31T10:11:25;94390.69;;;22.81;33.06
77366;BME280;66430;50.182;11.704;2023-07-31T10:13:48;94390.98;;;22.67;33.13
77366;BME280;66430;50.182;11.704;2023-07-31T10:16:14;94388.25;;;22.92;33.41
77366;BME280;66430;50.182;11.704;2023-07-31T10:18:40;94384.85;;;22.71;33.23
77366;BME280;66430;50.182;11.704;2023-07-31T10:21:09;94377.33;;;22.66;33.32
77366;BME280;66430;50.182;11.704;2023-07-31T10:23:29;94379.63;;;22.69;33.39
77366;BME280;66430;50.182;11.704;2023-07-31T10:25:55;94379.23;;;22.61;33.90
77366;BME280;66430;50.182;11.704;2023-07-31T10:28:20;94375.88;;;21.95;33.78
77366;BME280;66430;50.182;11.704;2023-07-31T10:30:45;94367.95;;;22.93;33.55
77366;BME280;66430;50.182;11.704;2023-07-31T10:33:11;94362.94;;;23.16;33.53
77366;BME280;66430;50.182;11.704;2023-07-31T10:35:36;94353.90;;;22.93;33.59
77366;BME280;66430;50.182;11.704;2023-07-31T10:38:09;94350.62;;;22.91;33.49
77366;BME280;66430;50.182;11.704;2023-07-31T10:40:27;94347.92;;;23.12;32.65
77366;BME280;66430;50.182;11.704;2023-07-31T10:42:54;94347.87;;;23.17;33.55
77366;BME280;66430;50.182;11.704;2023-07-31T10:45:26;94344.56;;;23.74;33.13
77366;BME280;66430;50.182;11.704;2023-07-31T10:47:44;94342.35;;;23.49;33.99
77366;BME280;66430;50.182;11.704;2023-07-31T10:50:17;94339.32;;;23.49;32.38
77366;BME280;66430;50.182;11.704;2023-07-31T10:52:35;94336.46;;;23.82;32.39
77366;BME280;66430;50.182;11.704;2023-07-31T10:57:24;94340.67;;;23.58;32.38
77366;BME280;66430;50.182;11.704;2023-07-31T10:59:49;94338.45;;;24.07;31.90
77366;BME280;66430;50.182;11.704;2023-07-31T11:02:24;94339.44;;;24.16;32.58
77366;BME280;66430;50.182;11.704;2023-07-31T11:04:41;94333.93;;;23.81;31.63
77366;BME280;66430;50.182;11.704;2023-07-31T11:07:05;94334.68;;;24.34;31.84
77366;BME280;66430;50.182;11.704;2023-07-31T11:09:31;94329.74;;;23.87;31.43
77366;BME280;66430;50.182;11.704;2023-07-31T11:11:56;94329.02;;;23.85;31.72
77366;BME280;66430;50.182;11.704;2023-07-31T11:14:21;94333.49;;;24.17;31.80
77366;BME280;66430;50.182;11.704;2023-07-31T11:16:46;94330.46;;;23.57;32.39
77366;BME280;66430;50.182;11.704;2023-07-31T11:19:11;94329.65;;;24.07;32.32
77366;BME280;66430;50.182;11.704;2023-07-31T11:21:37;94332.18;;;24.15;31.70
77366;BME280;66430;50.182;11.704;2023-07-31T11:24:02;94336.38;;;23.86;31.71
77366;BME280;66430;50.182;11.704;2023-07-31T11:26:27;94339.36;;;23.71;32.02
77366;BME280;66430;50.182;11.704;2023-07-31T11:28:52;94338.25;;;23.90;31.84
77366;BME280;66430;50.182;11.704;2023-07-31T11:31:18;94335.66;;;23.99;31.88
77366;BME280;66430;50.182;11.704;2023-07-31T11:33:43;94331.30;;;23.55;31.98
77366;BME280;66430;50.182;11.704;2023-07-31T11:36:15;94326.25;;;23.79;32.07
77366;BME280;66430;50.182;11.704;2023-07-31T11:38:34;94327.20;;;23.98;32.57
77366;BME280;66430;50.182;11.704;2023-07-31T11:41:00;94319.41;;;24.21;32.09
77366;BME280;66430;50.182;11.704;2023-07-31T11:43:25;94311.99;;;23.64;31.81
77366;BME280;66430;50.182;11.704;2023-07-31T11:45:51;94313.03;;;23.95;31.30
77366;BME280;66430;50.182;11.704;2023-07-31T11:48:22;94314.07;;;23.32;31.63
77366;BME280;66430;50.182;11.704;2023-07-31T11:50:40;94307.82;;;23.39;31.21
77366;BME280;66430;50.182;11.704;2023-07-31T11:53:08;94314.02;;;23.55;31.31
77366;BME280;66430;50.182;11.704;2023-07-31T11:55:31;94316.43;;;23.57;31.47
77366;BME280;66430;50.182;11.704;2023-07-31T11:57:58;94313.69;;;23.75;31.86
77366;BME280;66430;50.182;11.704;2023-07-31T12:00:22;94316.77;;;23.82;31.92
77366;BME280;66430;50.182;11.704;2023-07-31T12:02:47;94310.72;;;23.41;31.38
77366;BME280;66430;50.182;11.704;2023-07-31T12:05:18;94311.81;;;23.78;31.63
77366;BME280;66430;50.182;11.704;2023-07-31T12:07:45;94302.63;;;23.63;31.80
77366;BME280;66430;50.182;11.704;2023-07-31T12:10:04;94303.02;;;23.47;31.77
77366;BME280;66430;50.182;11.704;2023-07-31T12:12:28;94303.30;;;23.60;32.24
77366;BME280;66430;50.182;11.704;2023-07-31T12:14:55;94305.34;;;23.80;31.63
77366;BME280;66430;50.182;11.704;2023-07-31T12:17:19;94304.54;;;23.87;31.77
77366;BME280;66430;50.182;11.704;2023-07-31T12:19:44;94298.30;;;23.35;31.38
77366;BME280;66430;50.182;11.704;2023-07-31T12:22:14;94299.70;;;23.95;31.26
77366;BME280;66430;50.182;11.704;2023-07-31T12:24:35;94305.51;;;23.64;32.06
77366;BME280;66430;50.182;11.704;2023-07-31T12:27:00;94307.05;;;23.48;32.38
77366;BME280;66430;50.182;11.704;2023-07-31T12:29:33;94308.90;;;23.61;31.99
77366;BME280;66430;50.182;11.704;2023-07-31T12:31:51;94305.44;;;23.85;32.23
77366;BME280;66430;50.182;11.704;2023-07-31T12:34:18;94300.27;;;23.49;31.95
77366;BME280;66430;50.182;11.704;2023-07-31T12:36:42;94296.97;;;23.69;32.18
77366;BME280;66430;50.182;11.704;2023-07-31T12:39:09;94289.89;;;23.42;31.79
77366;BME280;66430;50.182;11.704;2023-07-31T12:41:32;94295.38;;;23.51;31.38
77366;BME280;66430;50.182;11.704;2023-07-31T12:43:57;94296.10;;;23.66;32.29